Walton, Canada
Current Conditions -  °F | °C
As of 10:00 PM on Saturday 25 Oct 2014 (Local Time) from CYHZ Reporting Station
Overcast Overcast  
Wind Chill: 43°   Ceiling: 900
Heat Index: 46°   Visibility: 15mi
Dew Point: 45°   Wind: 7mph
Humidity: 93%   Direction: 330°NNW
Pressure: 29.51"   Gusts: NA
Location:  45.22°N, 64.02°W
Report Text: CYHZ 260100Z 33006KT 15SM BKN009 OVC020 08/07 A2951 RMK SC6SC2 SLP995
Loading
Personal Weather Stations






























Interactive Weather Map
Tropical Storm Tracking
New forecast layout! Learn more

10-Day Weather Forecast

Advertisements
Track Severe Weather on mobile